Airfield :







YOU CAN JOIN US ON...

 
LOGIN :

Register | Disclaimer

   EN    FR    IT 

 









Legend :    VFR   Marginal VFR   IFR   Intensive IFR   Very Intensive IFR
Visi :
Ceiling :
>= 8 km
>= 3000ft
5 to 8 km
1000 to 3000 ft
1500m to 5 km
500 to 1000 ft
800 to 1500m
200 to 500 ft
< 800m
< 200 ft
Symbols :   Thunderstorms  Fog  Heavy snow  Heavy precipitations  Wind > 20 kt







- Airport Elevation : 234 ft
- IATA code : PBG


KPBG - Plattsburgh International

CURRENT METAR :
  • 242053Z AUTO 02004KT 10SM CLR 24/07 A2984 RMK AO2 SLP104 T02440067 56009

EXPIRED METARs :
  • 241953Z AUTO 05006KT 10SM CLR 25/06 A2984 RMK AO2 SLP105 T02500061
  • 241853Z AUTO 06008KT 10SM CLR 24/05 A2985 RMK AO2 SLP108 T02440050

TAF KPBG
Valid from the 24 at 18:00 until the 25 at 18:00 UTC


241738Z 2418/2518 06007KT P6SM SCT250
FM251000 15005KT P6SM VCSH BKN080
FM251400 15008KT P6SM -SHRA OVC040
FM251600 15008KT 3SM -SHRA BR OVC040
KZBW FIR / North America



MET'MAP, your aeronautical weather chart ! - Copyright ORBIFLY December 2007 - Disclaimer

ORBIFLY MET'MAP TEAM :

Programming & Development : Alexandra Zaïnal
Concept & Development : Baudouin d'Aumeries
Co-Development & Prog : Marc-Olivier Méhu
Technical & hardware support : Manuel Goepfert

Contact : metmap@orbifly.com




SOURCES & CREDITS :

   NOAA